createdAt,value
2019-03-26T00:01:41.543Z,5.50
2019-03-26T00:04:10.999Z,5.40
2019-03-26T00:06:40.508Z,5.50
2019-03-26T00:09:13.270Z,5.40
2019-03-26T00:11:42.650Z,5.40
2019-03-26T00:14:12.024Z,5.30
2019-03-26T00:16:41.624Z,5.30
2019-03-26T00:19:11.128Z,5.30
2019-03-26T00:21:40.647Z,5.40
2019-03-26T00:24:10.041Z,5.20
2019-03-26T00:26:39.388Z,5.20
2019-03-26T00:29:08.729Z,5.20
2019-03-26T00:31:38.157Z,5.00
2019-03-26T00:34:18.579Z,5.10
2019-03-26T00:36:38.777Z,5.10
2019-03-26T00:39:08.561Z,5.00
2019-03-26T00:41:38.008Z,5.00
2019-03-26T00:44:07.529Z,5.00
2019-03-26T00:46:36.966Z,4.90
2019-03-26T00:49:06.449Z,4.80
2019-03-26T00:51:35.943Z,4.80
2019-03-26T00:54:05.431Z,4.80
2019-03-26T00:56:34.776Z,4.80
2019-03-26T00:59:04.206Z,4.70
2019-03-26T01:01:33.703Z,4.70
2019-03-26T01:04:03.074Z,4.80
2019-03-26T01:06:32.437Z,4.80
2019-03-26T01:09:01.899Z,4.80
2019-03-26T01:11:31.421Z,4.70
2019-03-26T01:14:00.822Z,4.80
2019-03-26T01:16:30.085Z,4.90
2019-03-26T01:18:59.467Z,4.90
2019-03-26T01:21:28.969Z,4.70
2019-03-26T01:23:58.364Z,4.50
2019-03-26T01:26:27.937Z,4.60
2019-03-26T01:28:57.278Z,4.60
2019-03-26T01:31:26.688Z,4.50
2019-03-26T01:33:56.121Z,4.50
2019-03-26T01:36:25.463Z,4.50
2019-03-26T01:38:54.827Z,4.40
2019-03-26T01:41:24.395Z,4.30
2019-03-26T01:43:53.810Z,4.30
2019-03-26T01:46:23.214Z,4.40
2019-03-26T01:48:52.691Z,4.30
2019-03-26T01:51:22.119Z,4.30
2019-03-26T01:53:51.692Z,4.40
2019-03-26T01:56:21.109Z,4.50
2019-03-26T01:58:50.583Z,4.50
2019-03-26T02:01:20.019Z,4.40
2019-03-26T02:03:49.691Z,4.40
2019-03-26T02:06:19.195Z,4.50
2019-03-26T02:08:48.631Z,4.40
2019-03-26T02:11:18.126Z,4.40
2019-03-26T02:13:47.633Z,4.30
2019-03-26T02:16:17.110Z,4.40
2019-03-26T02:18:46.549Z,4.40
2019-03-26T02:21:16.772Z,4.40
2019-03-26T02:23:46.164Z,4.50
2019-03-26T02:26:15.748Z,4.50
2019-03-26T02:28:45.138Z,4.50
2019-03-26T02:31:14.471Z,4.60
2019-03-26T02:33:43.976Z,4.60
2019-03-26T02:36:13.345Z,4.60
2019-03-26T02:38:42.744Z,4.40
2019-03-26T02:41:12.305Z,4.40
2019-03-26T02:43:41.794Z,4.50
2019-03-26T02:46:11.202Z,4.40
2019-03-26T02:48:40.530Z,4.40
2019-03-26T02:51:10.024Z,4.50
2019-03-26T02:53:39.678Z,4.50
2019-03-26T02:56:09.193Z,4.40
2019-03-26T02:58:38.630Z,4.40
2019-03-26T03:01:08.070Z,4.50
2019-03-26T03:03:37.398Z,4.50
2019-03-26T03:06:06.819Z,4.50
2019-03-26T03:08:36.276Z,4.50
2019-03-26T03:11:05.700Z,4.50
2019-03-26T03:13:35.185Z,4.40
2019-03-26T03:16:04.568Z,4.40
2019-03-26T03:18:34.023Z,4.30
2019-03-26T03:21:03.622Z,4.20
2019-03-26T03:23:33.072Z,4.30
2019-03-26T03:26:02.627Z,4.30
2019-03-26T03:28:32.008Z,4.20
2019-03-26T03:31:01.474Z,4.30
2019-03-26T03:33:30.941Z,4.40
2019-03-26T03:36:00.382Z,4.50
2019-03-26T03:38:29.752Z,4.40
2019-03-26T03:40:59.189Z,4.40
2019-03-26T03:43:28.561Z,4.50
2019-03-26T03:45:58.360Z,4.50
2019-03-26T03:48:28.078Z,4.40
2019-03-26T03:50:57.998Z,4.50
2019-03-26T03:53:27.553Z,4.50
2019-03-26T03:55:58.455Z,4.50
2019-03-26T03:58:29.692Z,4.50
2019-03-26T04:00:59.059Z,4.50
2019-03-26T04:03:28.524Z,4.50
2019-03-26T04:06:08.686Z,4.40
2019-03-26T04:08:32.848Z,4.40
2019-03-26T04:11:02.158Z,4.50
2019-03-26T04:13:31.646Z,4.50
2019-03-26T04:16:01.138Z,4.40
2019-03-26T04:18:30.538Z,4.40
2019-03-26T04:20:59.873Z,4.50
2019-03-26T04:23:29.342Z,4.40
2019-03-26T04:25:58.747Z,4.50
2019-03-26T04:28:28.119Z,4.50
2019-03-26T04:30:57.498Z,4.60
2019-03-26T04:33:27.265Z,4.60
2019-03-26T04:35:56.599Z,4.60
2019-03-26T04:38:25.973Z,4.60
2019-03-26T04:40:59.577Z,4.60
2019-03-26T04:43:29.015Z,4.50
2019-03-26T04:45:58.405Z,4.40
2019-03-26T04:48:31.084Z,4.40
2019-03-26T04:51:00.506Z,4.50
2019-03-26T04:53:29.963Z,4.50
2019-03-26T04:55:59.402Z,4.50
2019-03-26T04:58:31.950Z,4.40
2019-03-26T05:01:01.342Z,4.20
2019-03-26T05:03:35.380Z,4.30
2019-03-26T05:06:04.768Z,4.40
2019-03-26T05:08:34.291Z,4.40
2019-03-26T05:11:03.681Z,4.30
2019-03-26T05:13:33.214Z,4.40
2019-03-26T05:16:02.604Z,4.30
2019-03-26T05:18:32.094Z,4.40
2019-03-26T05:21:01.527Z,4.40
2019-03-26T05:23:30.930Z,4.30
2019-03-26T05:26:00.403Z,4.40
2019-03-26T05:28:29.831Z,4.20
2019-03-26T05:30:59.325Z,4.20
2019-03-26T05:33:28.772Z,4.30
2019-03-26T05:35:58.151Z,4.20
2019-03-26T05:38:27.578Z,4.30
2019-03-26T05:40:56.939Z,4.20
2019-03-26T05:43:26.433Z,4.10
2019-03-26T05:45:55.913Z,4.00
2019-03-26T05:48:25.271Z,3.90
2019-03-26T05:50:54.762Z,3.80
2019-03-26T05:53:24.181Z,3.90
2019-03-26T05:55:53.519Z,3.90
2019-03-26T05:58:23.054Z,3.90
2019-03-26T06:00:52.528Z,3.90
2019-03-26T06:03:21.932Z,3.90
2019-03-26T06:05:51.364Z,4.10
2019-03-26T06:08:20.768Z,4.10
2019-03-26T06:10:50.238Z,3.90
2019-03-26T06:13:21.299Z,3.90
2019-03-26T06:15:53.656Z,4.10
2019-03-26T06:18:26.927Z,4.10
2019-03-26T06:20:56.295Z,4.30
2019-03-26T06:23:25.771Z,4.30
2019-03-26T06:25:55.402Z,4.40
2019-03-26T06:28:25.042Z,4.40
2019-03-26T06:30:54.481Z,4.60
2019-03-26T06:33:23.939Z,4.80
2019-03-26T06:35:53.432Z,4.90
2019-03-26T06:38:23.043Z,5.00
2019-03-26T06:40:54.138Z,4.90
2019-03-26T06:43:32.918Z,4.90
2019-03-26T06:46:08.800Z,5.10
2019-03-26T06:48:38.250Z,5.10
2019-03-26T06:51:07.743Z,5.10
2019-03-26T06:53:37.111Z,5.20
2019-03-26T06:56:06.574Z,5.20
2019-03-26T06:58:36.098Z,5.30
2019-03-26T07:01:05.735Z,5.40
2019-03-26T07:03:35.273Z,5.40
2019-03-26T07:06:04.971Z,5.40
2019-03-26T07:08:34.488Z,5.40
2019-03-26T07:11:04.115Z,5.60
2019-03-26T07:13:33.524Z,5.80
2019-03-26T07:16:03.103Z,5.60
2019-03-26T07:18:32.578Z,5.80
2019-03-26T07:21:02.143Z,5.90
2019-03-26T07:23:31.925Z,5.80
2019-03-26T07:26:01.433Z,5.50
2019-03-26T07:28:31.038Z,5.60
2019-03-26T07:31:00.413Z,5.70
2019-03-26T07:33:29.866Z,5.70
2019-03-26T07:35:59.306Z,5.70
2019-03-26T07:38:28.856Z,5.90
2019-03-26T07:40:58.330Z,5.80
2019-03-26T07:43:27.797Z,6.00
2019-03-26T07:45:57.339Z,6.00
2019-03-26T07:48:26.995Z,6.10
2019-03-26T07:50:58.110Z,6.20
2019-03-26T07:53:27.905Z,6.10
2019-03-26T07:55:57.309Z,6.30
2019-03-26T07:58:26.943Z,6.60
2019-03-26T08:00:56.753Z,6.70
2019-03-26T08:03:26.093Z,6.70
2019-03-26T08:05:55.564Z,6.80
2019-03-26T08:08:25.019Z,6.50
2019-03-26T08:10:54.707Z,6.80
2019-03-26T08:13:24.209Z,6.70
2019-03-26T08:15:53.813Z,6.80
2019-03-26T08:18:23.292Z,7.00
2019-03-26T08:20:52.866Z,7.20
2019-03-26T08:23:22.294Z,7.10
2019-03-26T08:25:51.756Z,7.20
2019-03-26T08:28:21.366Z,7.10
2019-03-26T08:30:50.804Z,7.30
2019-03-26T08:33:23.262Z,7.40
2019-03-26T08:35:51.428Z,7.60
2019-03-26T08:38:20.788Z,7.60
2019-03-26T08:40:50.204Z,7.40
2019-03-26T08:43:19.647Z,7.40
2019-03-26T08:45:49.064Z,7.90
2019-03-26T08:48:18.493Z,7.80
2019-03-26T08:50:47.932Z,7.70
2019-03-26T08:53:17.403Z,7.60
2019-03-26T08:55:46.739Z,7.60
2019-03-26T08:58:16.350Z,7.60
2019-03-26T09:00:45.749Z,7.50
2019-03-26T09:03:15.221Z,7.70
2019-03-26T09:05:44.794Z,7.90
2019-03-26T09:08:24.762Z,7.90
2019-03-26T09:10:51.745Z,7.90
2019-03-26T09:13:16.253Z,7.90
2019-03-26T09:15:45.727Z,7.40
2019-03-26T09:18:15.143Z,7.80
2019-03-26T09:20:44.662Z,8.00
2019-03-26T09:23:14.139Z,8.10
2019-03-26T09:25:43.607Z,8.30
2019-03-26T09:28:13.103Z,8.10
2019-03-26T09:30:42.541Z,7.70
2019-03-26T09:33:12.063Z,7.80
2019-03-26T09:35:41.615Z,7.80
2019-03-26T09:38:11.075Z,7.70
2019-03-26T09:40:40.462Z,7.90
2019-03-26T09:43:09.936Z,8.10
2019-03-26T09:45:39.617Z,8.20
2019-03-26T09:48:09.085Z,8.30
2019-03-26T09:50:38.696Z,8.30
2019-03-26T09:53:08.247Z,8.30
2019-03-26T09:55:37.838Z,8.40
2019-03-26T09:58:07.542Z,8.40
2019-03-26T10:00:39.614Z,8.40
2019-03-26T10:03:11.296Z,8.00
2019-03-26T10:05:40.845Z,7.60
2019-03-26T10:08:10.347Z,7.50
2019-03-26T10:10:39.959Z,7.70
2019-03-26T10:13:09.671Z,8.00
2019-03-26T10:15:39.107Z,8.10
2019-03-26T10:18:08.572Z,8.10
2019-03-26T10:20:37.975Z,7.90
2019-03-26T10:23:07.524Z,8.00
2019-03-26T10:25:37.129Z,7.90
2019-03-26T10:28:07.720Z,8.00
2019-03-26T10:30:38.825Z,8.00
2019-03-26T10:33:09.594Z,8.00
2019-03-26T10:35:39.198Z,7.80
2019-03-26T10:38:09.153Z,7.90
2019-03-26T10:40:39.294Z,8.00
2019-03-26T10:43:08.771Z,8.00
2019-03-26T10:45:38.375Z,8.00
2019-03-26T10:48:07.918Z,8.20
2019-03-26T10:50:37.396Z,8.20
2019-03-26T10:53:06.935Z,8.00
2019-03-26T10:55:36.361Z,7.90
2019-03-26T10:58:05.978Z,7.90
2019-03-26T11:00:35.525Z,8.10
2019-03-26T11:03:05.064Z,7.90
2019-03-26T11:05:34.775Z,8.00
2019-03-26T11:08:04.549Z,8.20
2019-03-26T11:10:34.074Z,8.20
2019-03-26T11:13:03.880Z,8.30
2019-03-26T11:15:33.458Z,8.50
2019-03-26T11:18:02.878Z,8.70
2019-03-26T11:20:32.410Z,8.80
2019-03-26T11:23:01.852Z,8.80
2019-03-26T11:25:31.477Z,8.80
2019-03-26T11:28:01.001Z,8.50
2019-03-26T11:30:30.506Z,8.50
2019-03-26T11:32:59.857Z,8.50
2019-03-26T11:35:29.199Z,8.20
2019-03-26T11:37:58.834Z,8.40
2019-03-26T11:40:28.471Z,8.50
2019-03-26T11:42:58.017Z,8.30
2019-03-26T11:45:38.646Z,8.40
2019-03-26T11:48:08.233Z,8.40
2019-03-26T11:50:37.728Z,8.30
2019-03-26T11:53:07.221Z,8.10
2019-03-26T11:55:36.820Z,7.90
2019-03-26T11:58:06.281Z,7.90
2019-03-26T12:00:37.804Z,7.90
2019-03-26T12:03:07.470Z,7.70
2019-03-26T12:05:37.034Z,7.40
2019-03-26T12:08:06.584Z,7.00
2019-03-26T12:10:36.187Z,7.10
2019-03-26T12:13:06.013Z,7.10
2019-03-26T12:15:35.398Z,7.70
2019-03-26T12:18:04.990Z,7.90
2019-03-26T12:20:34.466Z,7.90
2019-03-26T12:23:03.997Z,8.00
2019-03-26T12:25:33.387Z,7.80
2019-03-26T12:28:02.735Z,7.60
2019-03-26T12:30:37.434Z,7.50
2019-03-26T12:33:08.150Z,7.60
2019-03-26T12:35:37.747Z,7.70
2019-03-26T12:38:18.591Z,7.70
2019-03-26T12:40:48.485Z,7.60
2019-03-26T12:43:18.432Z,7.50
2019-03-26T12:45:49.079Z,8.30
2019-03-26T12:48:18.762Z,9.40
2019-03-26T12:50:48.442Z,10.30
2019-03-26T12:53:18.135Z,10.30
2019-03-26T12:55:49.257Z,10.10
2019-03-26T12:58:31.026Z,10.20
2019-03-26T13:00:50.103Z,10.30
2019-03-26T13:03:19.634Z,9.80
2019-03-26T13:05:49.106Z,9.30
2019-03-26T13:08:18.656Z,8.60
2019-03-26T13:10:53.814Z,8.50
2019-03-26T13:13:19.428Z,8.50
2019-03-26T13:15:49.013Z,8.30
2019-03-26T13:18:18.585Z,8.20
2019-03-26T13:20:48.041Z,8.30
2019-03-26T13:23:17.406Z,8.30
2019-03-26T13:25:46.801Z,8.50
2019-03-26T13:28:16.355Z,8.70
2019-03-26T13:30:45.904Z,8.60
2019-03-26T13:33:15.703Z,8.50
2019-03-26T13:35:45.135Z,8.60
2019-03-26T13:38:14.650Z,8.90
2019-03-26T13:40:44.331Z,10.10
2019-03-26T13:43:13.965Z,10.90
2019-03-26T13:45:43.474Z,11.50
2019-03-26T13:48:12.989Z,11.90
2019-03-26T13:50:42.511Z,12.20
2019-03-26T13:53:12.526Z,11.10
2019-03-26T13:55:42.003Z,10.20
2019-03-26T13:58:12.054Z,9.90
2019-03-26T14:00:41.648Z,9.60
2019-03-26T14:03:11.199Z,9.40
2019-03-26T14:05:40.875Z,9.00
2019-03-26T14:08:10.726Z,8.80
2019-03-26T14:10:41.611Z,8.50
2019-03-26T14:13:11.282Z,8.50
2019-03-26T14:15:40.859Z,8.30
2019-03-26T14:18:10.329Z,8.10
2019-03-26T14:20:40.878Z,8.10
2019-03-26T14:23:10.496Z,8.20
2019-03-26T14:25:39.953Z,8.40
2019-03-26T14:28:09.608Z,8.50
2019-03-26T14:30:43.994Z,8.50
2019-03-26T14:33:13.604Z,8.50
2019-03-26T14:35:43.062Z,8.50
2019-03-26T14:38:12.459Z,8.40
2019-03-26T14:40:54.155Z,8.80
2019-03-26T14:43:13.228Z,9.30
2019-03-26T14:45:43.181Z,9.70
2019-03-26T14:48:12.546Z,10.10
2019-03-26T14:50:42.057Z,10.80
2019-03-26T14:53:11.538Z,11.00
2019-03-26T14:55:41.060Z,11.30
2019-03-26T14:58:10.450Z,11.90
2019-03-26T15:00:41.109Z,12.60
2019-03-26T15:03:10.664Z,12.20
2019-03-26T15:05:40.126Z,11.50
2019-03-26T15:08:22.046Z,10.80
2019-03-26T15:10:51.612Z,10.40
2019-03-26T15:13:21.068Z,10.50
2019-03-26T15:15:51.085Z,11.10
2019-03-26T15:18:20.415Z,11.50
2019-03-26T15:20:49.954Z,11.30
2019-03-26T15:23:19.576Z,11.70
2019-03-26T15:25:49.089Z,11.50
2019-03-26T15:28:18.697Z,10.80
2019-03-26T15:30:48.482Z,10.80
2019-03-26T15:33:17.957Z,10.70
2019-03-26T15:35:47.580Z,10.40
2019-03-26T15:38:17.263Z,10.20
2019-03-26T15:40:47.135Z,9.20
2019-03-26T15:43:16.722Z,9.30
2019-03-26T15:45:46.412Z,9.50
2019-03-26T15:48:16.002Z,9.50
2019-03-26T15:50:46.430Z,9.60
2019-03-26T15:53:16.351Z,9.90
2019-03-26T15:55:45.944Z,10.10
2019-03-26T15:58:15.475Z,10.50
2019-03-26T16:00:45.106Z,10.80
2019-03-26T16:03:14.827Z,10.70
2019-03-26T16:05:44.460Z,10.50
2019-03-26T16:08:17.872Z,10.30
2019-03-26T16:10:47.411Z,10.00
2019-03-26T16:13:16.989Z,10.10
2019-03-26T16:15:46.532Z,9.90
2019-03-26T16:18:15.992Z,9.80
2019-03-26T16:20:45.530Z,9.70
2019-03-26T16:23:14.936Z,9.50
2019-03-26T16:25:44.304Z,9.60
2019-03-26T16:28:13.752Z,9.60
2019-03-26T16:30:43.397Z,9.00
2019-03-26T16:33:12.787Z,9.30
2019-03-26T16:35:42.676Z,9.60
2019-03-26T16:38:12.078Z,9.70
2019-03-26T16:40:41.581Z,9.30
2019-03-26T16:43:11.472Z,9.30
2019-03-26T16:45:41.451Z,9.50
2019-03-26T16:48:10.929Z,9.40
2019-03-26T16:50:40.399Z,9.30
2019-03-26T16:53:09.931Z,9.10
2019-03-26T16:55:39.612Z,9.30
2019-03-26T16:58:09.075Z,9.40
2019-03-26T17:00:38.462Z,9.20
2019-03-26T17:03:08.051Z,9.40
2019-03-26T17:05:37.530Z,9.30
2019-03-26T17:08:07.201Z,9.30
2019-03-26T17:10:36.874Z,9.30
2019-03-26T17:13:06.325Z,9.20
2019-03-26T17:15:35.996Z,9.30
2019-03-26T17:18:05.529Z,9.30
2019-03-26T17:20:35.250Z,9.50
2019-03-26T17:23:04.817Z,9.50
2019-03-26T17:25:34.694Z,9.30
2019-03-26T17:28:04.338Z,9.40
2019-03-26T17:30:33.843Z,9.10
2019-03-26T17:33:03.380Z,8.70
2019-03-26T17:35:33.197Z,8.80
2019-03-26T17:38:02.729Z,8.50
2019-03-26T17:40:32.551Z,8.60
2019-03-26T17:43:01.949Z,8.50
2019-03-26T17:45:31.475Z,8.50
2019-03-26T17:48:01.248Z,8.50
2019-03-26T17:50:30.712Z,8.60
2019-03-26T17:53:00.536Z,8.50
2019-03-26T17:55:29.956Z,8.60
2019-03-26T17:57:59.947Z,8.50
2019-03-26T18:00:41.482Z,8.30
2019-03-26T18:03:25.211Z,8.50
2019-03-26T18:05:42.938Z,8.60
2019-03-26T18:08:12.491Z,8.30
2019-03-26T18:10:42.241Z,8.30
2019-03-26T18:13:11.949Z,8.30
2019-03-26T18:15:41.459Z,8.40
2019-03-26T18:18:11.426Z,8.50
2019-03-26T18:20:41.129Z,8.50
2019-03-26T18:23:10.840Z,8.50
2019-03-26T18:25:41.086Z,8.60
2019-03-26T18:28:10.575Z,8.60
2019-03-26T18:30:40.126Z,8.70
2019-03-26T18:33:09.769Z,8.60
2019-03-26T18:35:39.680Z,8.20
2019-03-26T18:38:09.440Z,8.30
2019-03-26T18:40:38.965Z,8.40
2019-03-26T18:43:09.414Z,8.20
2019-03-26T18:45:39.369Z,8.40
2019-03-26T18:48:09.163Z,8.60
2019-03-26T18:50:41.708Z,8.60
2019-03-26T18:53:11.393Z,8.60
2019-03-26T18:55:41.390Z,8.40
2019-03-26T18:58:11.057Z,8.60
2019-03-26T19:00:41.020Z,8.50
2019-03-26T19:03:10.709Z,8.50
2019-03-26T19:05:40.685Z,8.60
2019-03-26T19:08:10.290Z,8.40
2019-03-26T19:10:40.062Z,8.50
2019-03-26T19:13:19.293Z,8.60
2019-03-26T19:15:40.959Z,8.60
2019-03-26T19:18:10.763Z,8.40
2019-03-26T19:20:40.466Z,8.40
2019-03-26T19:23:10.353Z,8.40
2019-03-26T19:25:40.194Z,8.50
2019-03-26T19:28:09.795Z,8.50
2019-03-26T19:30:39.332Z,8.60
2019-03-26T19:33:09.002Z,8.50
2019-03-26T19:35:38.947Z,8.60
2019-03-26T19:38:08.843Z,8.40
2019-03-26T19:40:38.662Z,8.40
2019-03-26T19:43:11.319Z,8.40
2019-03-26T19:45:39.689Z,8.40
2019-03-26T19:48:09.283Z,8.50
2019-03-26T19:50:39.022Z,8.40
2019-03-26T19:53:08.850Z,8.40
2019-03-26T19:55:39.917Z,8.40
2019-03-26T19:58:09.501Z,8.40
2019-03-26T20:00:39.113Z,8.40
2019-03-26T20:03:11.037Z,8.40
2019-03-26T20:05:40.621Z,8.40
2019-03-26T20:08:10.373Z,8.20
2019-03-26T20:10:39.984Z,8.20
2019-03-26T20:13:23.311Z,8.10
2019-03-26T20:15:41.511Z,8.10
2019-03-26T20:18:14.404Z,8.20
2019-03-26T20:20:48.565Z,8.10
2019-03-26T20:23:19.007Z,8.20
2019-03-26T20:25:48.940Z,8.30
2019-03-26T20:28:18.743Z,8.10
2019-03-26T20:30:48.682Z,8.10
2019-03-26T20:36:18.446Z,8.30
2019-03-26T20:38:48.026Z,8.30
2019-03-26T20:41:19.710Z,8.40
2019-03-26T20:43:49.299Z,8.40
2019-03-26T20:46:18.934Z,8.40
2019-03-26T20:48:56.038Z,8.30
2019-03-26T20:51:27.676Z,8.20
2019-03-26T20:54:01.397Z,8.20
2019-03-26T20:56:32.319Z,8.20
2019-03-26T20:59:02.638Z,8.20
2019-03-26T21:01:32.409Z,8.20
2019-03-26T21:04:03.791Z,8.20
2019-03-26T21:06:37.000Z,8.00
2019-03-26T21:09:08.328Z,7.90
2019-03-26T21:11:38.020Z,7.70
2019-03-26T21:14:10.479Z,7.80
2019-03-26T21:16:42.712Z,7.70
2019-03-26T21:19:18.285Z,7.60
2019-03-26T21:21:48.624Z,7.70
2019-03-26T21:24:18.936Z,7.70
2019-03-26T21:26:50.894Z,7.70
2019-03-26T21:29:24.146Z,7.70
2019-03-26T21:31:54.546Z,7.80
2019-03-26T21:34:30.648Z,7.80
2019-03-26T21:37:03.033Z,7.90
2019-03-26T21:39:38.265Z,7.80
2019-03-26T21:42:11.230Z,7.80
2019-03-26T21:44:41.443Z,7.70
2019-03-26T21:47:14.995Z,7.60
2019-03-26T21:49:48.609Z,7.60
2019-03-26T21:52:25.973Z,7.50
2019-03-26T21:54:55.700Z,7.40
2019-03-26T21:57:25.639Z,7.40
2019-03-26T21:59:56.475Z,7.40
2019-03-26T22:02:26.322Z,7.60
2019-03-26T22:04:56.133Z,7.60
2019-03-26T22:07:28.985Z,7.60
2019-03-26T22:09:59.181Z,7.60
2019-03-26T22:12:29.078Z,7.30
2019-03-26T22:15:02.684Z,7.30
2019-03-26T22:17:32.819Z,7.40
2019-03-26T22:20:08.701Z,7.20
2019-03-26T22:22:38.664Z,7.30
2019-03-26T22:25:08.621Z,7.40
2019-03-26T22:27:38.614Z,7.30
2019-03-26T22:30:09.351Z,7.30
2019-03-26T22:32:38.842Z,7.20
2019-03-26T22:35:10.174Z,7.30
2019-03-26T22:37:39.743Z,7.40
2019-03-26T22:40:09.680Z,7.40
2019-03-26T22:42:39.195Z,7.50
2019-03-26T22:45:10.036Z,7.60
2019-03-26T22:47:40.167Z,7.50
2019-03-26T22:50:11.871Z,7.40
2019-03-26T22:52:41.271Z,7.30
2019-03-26T22:55:13.829Z,7.30
2019-03-26T22:57:43.478Z,7.30
2019-03-26T23:00:15.502Z,7.30
2019-03-26T23:02:45.474Z,7.30
2019-03-26T23:05:15.760Z,7.30
2019-03-26T23:07:48.236Z,7.30
2019-03-26T23:10:19.714Z,7.10
2019-03-26T23:12:49.281Z,6.90
2019-03-26T23:15:24.092Z,7.00
2019-03-26T23:17:53.985Z,6.90
2019-03-26T23:20:23.668Z,6.80
2019-03-26T23:22:53.155Z,6.90
2019-03-26T23:25:24.758Z,7.00
2019-03-26T23:27:56.270Z,6.90
2019-03-26T23:30:25.934Z,6.80
2019-03-26T23:32:55.423Z,6.80
2019-03-26T23:35:24.854Z,6.90
2019-03-26T23:37:54.281Z,6.90
2019-03-26T23:40:23.727Z,6.90
2019-03-26T23:42:53.510Z,6.80
2019-03-26T23:45:23.310Z,6.80
2019-03-26T23:47:52.755Z,6.70
2019-03-26T23:50:22.307Z,6.60
2019-03-26T23:52:51.689Z,6.70
2019-03-26T23:55:21.137Z,6.60
2019-03-26T23:57:50.771Z,6.60
